createdAt,value
2017-08-14T00:01:42.029Z,5.50
2017-08-14T00:04:08.320Z,4.30
2017-08-14T00:06:34.605Z,4.00
2017-08-14T00:09:00.910Z,4.10
2017-08-14T00:11:27.192Z,5.00
2017-08-14T00:13:53.487Z,4.63
2017-08-14T00:16:20.569Z,4.30
2017-08-14T00:18:50.518Z,4.00
2017-08-14T00:21:16.785Z,4.63
2017-08-14T00:23:43.082Z,4.57
2017-08-14T00:26:09.366Z,4.50
2017-08-14T00:28:36.022Z,5.10
2017-08-14T00:31:02.338Z,4.43
2017-08-14T00:33:28.652Z,4.77
2017-08-14T00:35:54.957Z,5.27
2017-08-14T00:38:21.244Z,3.77
2017-08-14T00:40:47.531Z,4.80
2017-08-14T00:43:13.828Z,5.47
2017-08-14T00:45:40.138Z,5.00
2017-08-14T00:48:06.438Z,5.33
2017-08-14T00:50:33.116Z,4.60
2017-08-14T00:52:59.423Z,4.40
2017-08-14T00:55:25.728Z,5.13
2017-08-14T00:57:52.036Z,5.60
2017-08-14T01:00:18.349Z,4.60
2017-08-14T01:02:44.636Z,4.80
2017-08-14T01:05:12.253Z,4.63
2017-08-14T01:07:38.536Z,5.00
2017-08-14T01:10:04.804Z,4.67
2017-08-14T01:12:31.107Z,4.53
2017-08-14T01:14:57.395Z,4.10
2017-08-14T01:17:23.685Z,4.33
2017-08-14T01:19:49.996Z,4.70
2017-08-14T01:22:16.262Z,4.03
2017-08-14T01:24:42.567Z,4.30
2017-08-14T01:27:08.839Z,4.43
2017-08-14T01:29:35.146Z,4.07
2017-08-14T01:32:01.432Z,3.93
2017-08-14T01:34:27.736Z,4.53
2017-08-14T01:36:54.010Z,4.03
2017-08-14T01:39:20.329Z,4.43
2017-08-14T01:41:46.605Z,4.37
2017-08-14T01:44:12.869Z,4.30
2017-08-14T01:46:39.184Z,5.20
2017-08-14T01:49:05.825Z,4.63
2017-08-14T01:51:32.633Z,5.17
2017-08-14T01:53:58.902Z,4.47
2017-08-14T01:56:25.183Z,4.90
2017-08-14T01:58:51.486Z,5.20
2017-08-14T02:01:18.042Z,5.20
2017-08-14T02:03:44.325Z,5.60
2017-08-14T02:06:10.595Z,4.97
2017-08-14T02:08:36.908Z,6.07
2017-08-14T02:11:03.195Z,4.80
2017-08-14T02:13:29.499Z,4.67
2017-08-14T02:15:55.784Z,5.90
2017-08-14T02:18:22.442Z,5.00
2017-08-14T02:20:48.751Z,5.40
2017-08-14T02:23:15.045Z,5.63
2017-08-14T02:25:41.320Z,5.30
2017-08-14T02:28:07.610Z,5.00
2017-08-14T02:30:33.941Z,5.07
2017-08-14T02:33:00.236Z,5.10
2017-08-14T02:35:26.567Z,6.32
2017-08-14T02:37:52.856Z,5.20
2017-08-14T02:40:19.160Z,5.82
2017-08-14T02:42:45.449Z,5.30
2017-08-14T02:45:11.763Z,5.95
2017-08-14T02:47:38.061Z,5.90
2017-08-14T02:50:04.687Z,5.75
2017-08-14T02:52:30.959Z,5.75
2017-08-14T02:54:57.232Z,6.10
2017-08-14T02:57:23.527Z,5.87
2017-08-14T02:59:49.817Z,5.80
2017-08-14T03:02:16.117Z,6.20
2017-08-14T03:04:42.407Z,5.60
2017-08-14T03:07:08.740Z,5.53
2017-08-14T03:09:35.013Z,5.97
2017-08-14T03:12:01.296Z,6.07
2017-08-14T03:14:27.648Z,5.60
2017-08-14T03:16:53.946Z,5.60
2017-08-14T03:19:20.637Z,6.05
2017-08-14T03:21:46.922Z,5.40
2017-08-14T03:24:13.210Z,5.12
2017-08-14T03:26:39.907Z,6.03
2017-08-14T03:29:06.206Z,5.62
2017-08-14T03:31:32.502Z,5.78
2017-08-14T03:33:58.785Z,5.35
2017-08-14T03:36:25.076Z,6.07
2017-08-14T03:38:51.374Z,6.03
2017-08-14T03:41:17.668Z,6.05
2017-08-14T03:43:44.226Z,5.97
2017-08-14T03:46:10.510Z,6.72
2017-08-14T03:48:36.798Z,6.45
2017-08-14T03:51:03.116Z,6.55
2017-08-14T03:53:29.423Z,7.05
2017-08-14T03:55:55.991Z,6.57
2017-08-14T03:58:22.258Z,8.37
2017-08-14T04:00:48.541Z,9.10
2017-08-14T04:03:14.838Z,7.10
2017-08-14T04:05:41.140Z,7.80
2017-08-14T04:08:07.453Z,9.07
2017-08-14T04:10:33.722Z,7.70
2017-08-14T04:13:00.000Z,8.48
2017-08-14T04:15:26.316Z,7.90
2017-08-14T04:17:52.609Z,7.43
2017-08-14T04:20:18.901Z,9.00
2017-08-14T04:22:45.170Z,7.65
2017-08-14T04:25:11.483Z,7.40
2017-08-14T04:27:38.130Z,8.35
2017-08-14T04:30:04.455Z,8.95
2017-08-14T04:32:30.719Z,9.20
2017-08-14T04:34:57.372Z,8.75
2017-08-14T04:37:23.661Z,9.00
2017-08-14T04:39:49.944Z,8.75
2017-08-14T04:42:16.233Z,9.55
2017-08-14T04:44:42.508Z,9.00
2017-08-14T04:47:08.817Z,8.10
2017-08-14T04:49:35.102Z,9.10
2017-08-14T04:52:01.392Z,8.73
2017-08-14T04:54:27.667Z,9.23
2017-08-14T04:56:53.986Z,9.65
2017-08-14T04:59:20.262Z,10.63
2017-08-14T05:01:46.563Z,10.97
2017-08-14T05:04:12.859Z,10.15
2017-08-14T05:06:39.137Z,11.23
2017-08-14T05:09:05.435Z,9.63
2017-08-14T05:11:32.073Z,10.27
2017-08-14T05:13:58.365Z,10.90
2017-08-14T05:16:24.618Z,10.33
2017-08-14T05:18:50.922Z,10.30
2017-08-14T05:21:17.207Z,11.43
2017-08-14T05:23:43.541Z,11.47
2017-08-14T05:26:09.812Z,11.50
2017-08-14T05:28:36.095Z,10.77
2017-08-14T05:31:02.389Z,11.00
2017-08-14T05:33:28.689Z,10.50
2017-08-14T05:35:54.970Z,11.40
2017-08-14T05:38:21.220Z,10.20
2017-08-14T05:40:48.489Z,10.83
2017-08-14T05:43:14.770Z,10.47
2017-08-14T05:45:41.057Z,10.07
2017-08-14T05:48:07.366Z,10.40
2017-08-14T05:50:33.656Z,10.03
2017-08-14T05:52:59.943Z,10.43
2017-08-14T05:55:26.250Z,11.63
2017-08-14T05:57:52.536Z,11.27
2017-08-14T06:00:18.838Z,11.03
2017-08-14T06:02:45.190Z,10.30
2017-08-14T06:05:11.502Z,10.20
2017-08-14T06:07:37.787Z,9.40
2017-08-14T06:10:04.077Z,11.13
2017-08-14T06:12:30.416Z,10.03
2017-08-14T06:14:56.727Z,10.57
2017-08-14T06:17:23.001Z,10.80
2017-08-14T06:19:49.312Z,12.07
2017-08-14T06:22:15.583Z,11.40
2017-08-14T06:24:41.895Z,10.60
2017-08-14T06:27:08.169Z,11.33
2017-08-14T06:29:34.934Z,9.23
2017-08-14T06:32:01.218Z,10.77
2017-08-14T06:34:27.518Z,11.23
2017-08-14T06:36:53.846Z,10.47
2017-08-14T06:39:20.130Z,10.53
2017-08-14T06:41:46.418Z,10.57
2017-08-14T06:44:12.763Z,10.10
2017-08-14T06:46:39.037Z,9.70
2017-08-14T06:49:05.309Z,9.10
2017-08-14T06:51:31.609Z,8.97
2017-08-14T06:53:57.866Z,8.80
2017-08-14T06:56:24.469Z,9.97
2017-08-14T06:58:50.741Z,10.57
2017-08-14T07:01:17.029Z,12.13
2017-08-14T07:03:43.308Z,10.90
2017-08-14T07:06:09.566Z,8.53
2017-08-14T07:08:35.843Z,8.23
2017-08-14T07:11:02.119Z,7.60
2017-08-14T07:13:28.482Z,7.20
2017-08-14T07:15:54.769Z,7.37
2017-08-14T07:18:21.349Z,7.20
2017-08-14T07:20:47.626Z,6.83
2017-08-14T07:23:13.939Z,6.53
2017-08-14T07:25:40.226Z,6.60
2017-08-14T07:28:06.501Z,6.80
2017-08-14T07:30:32.796Z,5.70
2017-08-14T07:32:59.458Z,6.20
2017-08-14T07:35:25.779Z,5.60
2017-08-14T07:37:52.046Z,5.30
2017-08-14T07:40:18.368Z,5.07
2017-08-14T07:42:44.662Z,4.97
2017-08-14T07:45:10.970Z,5.30
2017-08-14T07:47:37.261Z,4.77
2017-08-14T07:50:03.547Z,4.27
2017-08-14T07:52:29.825Z,4.73
2017-08-14T07:54:56.095Z,4.47
2017-08-14T07:57:22.362Z,4.57
2017-08-14T07:59:48.642Z,4.00
2017-08-14T08:02:14.909Z,4.70
2017-08-14T08:04:41.199Z,4.07
2017-08-14T08:07:07.450Z,4.10
2017-08-14T08:09:34.379Z,3.73
2017-08-14T08:12:00.656Z,3.80
2017-08-14T08:14:26.944Z,3.87
2017-08-14T08:16:53.597Z,4.03
2017-08-14T08:19:20.235Z,3.13
2017-08-14T08:21:46.493Z,3.30
2017-08-14T08:24:12.744Z,3.27
2017-08-14T08:26:39.043Z,3.60
2017-08-14T08:29:05.350Z,3.83
2017-08-14T08:31:32.040Z,3.47
2017-08-14T08:33:58.330Z,3.57
2017-08-14T08:36:24.604Z,2.80
2017-08-14T08:38:50.888Z,2.67
2017-08-14T08:41:17.150Z,3.17
2017-08-14T08:43:43.444Z,2.63
2017-08-14T08:46:09.981Z,3.10
2017-08-14T08:48:36.304Z,2.80
2017-08-14T08:51:03.459Z,2.43
2017-08-14T08:53:30.093Z,2.83
2017-08-14T08:55:56.395Z,2.23
2017-08-14T08:58:22.646Z,2.73
2017-08-14T09:00:48.933Z,2.90
2017-08-14T09:03:15.212Z,2.73
2017-08-14T09:05:41.546Z,2.90
2017-08-14T09:08:07.832Z,2.87
2017-08-14T09:10:34.153Z,2.40
2017-08-14T09:13:00.432Z,2.40
2017-08-14T09:15:26.733Z,2.67
2017-08-14T09:17:53.038Z,2.80
2017-08-14T09:20:19.311Z,2.40
2017-08-14T09:22:45.625Z,2.60
2017-08-14T09:25:11.869Z,2.40
2017-08-14T09:27:38.538Z,2.50
2017-08-14T09:30:04.844Z,2.83
2017-08-14T09:32:31.105Z,2.67
2017-08-14T09:34:57.369Z,2.37
2017-08-14T09:37:23.660Z,2.97
2017-08-14T09:39:49.968Z,2.07
2017-08-14T09:42:16.290Z,2.33
2017-08-14T09:44:42.582Z,2.40
2017-08-14T09:47:09.686Z,2.00
2017-08-14T09:49:35.997Z,2.53
2017-08-14T09:52:02.654Z,2.80
2017-08-14T09:54:28.956Z,2.50
2017-08-14T09:56:55.226Z,1.93
2017-08-14T09:59:21.510Z,2.57
2017-08-14T10:01:48.157Z,2.40
2017-08-14T10:04:14.430Z,2.33
2017-08-14T10:06:40.722Z,2.80
2017-08-14T10:09:06.989Z,2.03
2017-08-14T10:11:33.243Z,1.73
2017-08-14T10:13:59.547Z,2.10
2017-08-14T10:16:26.781Z,2.07
2017-08-14T10:18:53.052Z,1.80
2017-08-14T10:21:19.423Z,2.10
2017-08-14T10:23:46.086Z,2.00
2017-08-14T10:26:12.380Z,1.50
2017-08-14T10:28:38.653Z,2.13
2017-08-14T10:31:04.942Z,2.27
2017-08-14T10:33:31.611Z,2.03
2017-08-14T10:35:57.889Z,1.93
2017-08-14T10:38:24.197Z,1.87
2017-08-14T10:40:50.481Z,1.93
2017-08-14T10:43:17.749Z,1.90
2017-08-14T10:45:44.013Z,1.80
2017-08-14T10:48:10.660Z,2.00
2017-08-14T10:50:36.950Z,2.00
2017-08-14T10:53:03.203Z,2.27
2017-08-14T10:55:29.512Z,2.10
2017-08-14T10:57:55.789Z,2.07
2017-08-14T11:00:22.093Z,1.53
2017-08-14T11:02:48.355Z,1.90
2017-08-14T11:05:15.600Z,1.77
2017-08-14T11:07:41.882Z,2.00
2017-08-14T11:10:08.157Z,1.80
2017-08-14T11:12:34.426Z,1.70
2017-08-14T11:15:01.005Z,2.20
2017-08-14T11:17:27.290Z,1.50
2017-08-14T11:19:53.578Z,1.63
2017-08-14T11:22:19.856Z,2.03
2017-08-14T11:24:46.153Z,1.70
2017-08-14T11:27:12.443Z,1.60
2017-08-14T11:29:38.715Z,1.83
2017-08-14T11:32:05.384Z,1.73
2017-08-14T11:34:32.401Z,1.83
2017-08-14T11:36:59.121Z,2.07
2017-08-14T11:39:25.412Z,2.10
2017-08-14T11:41:51.716Z,2.17
2017-08-14T11:44:17.964Z,1.63
2017-08-14T11:46:44.246Z,2.07
2017-08-14T11:49:10.528Z,1.90
2017-08-14T11:51:36.783Z,2.20
2017-08-14T11:54:03.079Z,1.60
2017-08-14T11:56:29.373Z,1.63
2017-08-14T11:58:55.638Z,2.27
2017-08-14T12:01:21.937Z,2.10
2017-08-14T12:03:48.279Z,2.10
2017-08-14T12:06:14.581Z,1.90
2017-08-14T12:08:41.290Z,1.90
2017-08-14T12:11:07.569Z,1.97
2017-08-14T12:13:33.880Z,1.70
2017-08-14T12:16:00.150Z,2.03
2017-08-14T12:18:26.461Z,1.63
2017-08-14T12:20:52.719Z,1.80
2017-08-14T12:23:18.987Z,1.80
2017-08-14T12:25:45.258Z,2.37
2017-08-14T12:28:11.957Z,2.00
2017-08-14T12:30:38.234Z,2.00
2017-08-14T12:33:04.515Z,2.10
2017-08-14T12:35:31.214Z,2.27
2017-08-14T12:37:57.484Z,2.03
2017-08-14T12:40:24.632Z,2.37
2017-08-14T12:42:50.920Z,2.07
2017-08-14T12:45:17.218Z,2.03
2017-08-14T12:47:43.496Z,1.95
2017-08-14T12:50:09.814Z,2.45
2017-08-14T12:52:36.090Z,2.15
2017-08-14T12:55:02.405Z,2.33
2017-08-14T12:57:28.695Z,2.17
2017-08-14T12:59:54.958Z,2.97
2017-08-14T13:02:21.233Z,2.12
2017-08-14T13:04:47.504Z,2.40
2017-08-14T13:07:13.800Z,2.30
2017-08-14T13:09:40.127Z,2.53
2017-08-14T13:12:06.793Z,2.62
2017-08-14T13:14:33.092Z,2.40
2017-08-14T13:16:59.373Z,2.37
2017-08-14T13:19:25.663Z,2.28
2017-08-14T13:21:51.944Z,3.00
2017-08-14T13:24:18.247Z,2.60
2017-08-14T13:26:44.560Z,2.60
2017-08-14T13:29:10.862Z,2.45
2017-08-14T13:31:37.133Z,2.67
2017-08-14T13:34:03.508Z,2.40
2017-08-14T13:36:30.167Z,2.55
2017-08-14T13:38:56.471Z,2.35
2017-08-14T13:41:22.776Z,2.58
2017-08-14T13:43:49.060Z,2.95
2017-08-14T13:46:15.346Z,2.83
2017-08-14T13:48:41.658Z,2.78
2017-08-14T13:51:07.950Z,2.70
2017-08-14T13:53:34.246Z,3.03
2017-08-14T13:56:00.545Z,2.45
2017-08-14T13:58:26.841Z,2.55
2017-08-14T14:00:53.126Z,2.78
2017-08-14T14:03:19.386Z,2.53
2017-08-14T14:05:45.693Z,2.58
2017-08-14T14:08:12.355Z,2.22
2017-08-14T14:10:38.634Z,2.20
2017-08-14T14:13:04.947Z,2.40
2017-08-14T14:15:31.228Z,2.45
2017-08-14T14:17:57.898Z,2.33
2017-08-14T14:20:24.169Z,2.60
2017-08-14T14:22:50.475Z,2.25
2017-08-14T14:25:16.772Z,2.78
2017-08-14T14:27:43.065Z,2.37
2017-08-14T14:30:09.347Z,2.30
2017-08-14T14:32:35.676Z,2.42
2017-08-14T14:35:01.958Z,2.10
2017-08-14T14:37:28.228Z,2.90
2017-08-14T14:39:54.537Z,2.33
2017-08-14T14:42:21.201Z,2.50
2017-08-14T14:44:48.461Z,2.78
2017-08-14T14:47:14.732Z,2.20
2017-08-14T14:49:41.047Z,2.10
2017-08-14T14:52:07.317Z,2.47
2017-08-14T14:54:34.096Z,2.40
2017-08-14T14:57:00.384Z,2.37
2017-08-14T14:59:26.798Z,2.17
2017-08-14T15:01:53.339Z,2.08
2017-08-14T15:04:19.633Z,2.13
2017-08-14T15:06:45.957Z,2.00
2017-08-14T15:09:12.255Z,2.20
2017-08-14T15:11:38.832Z,2.57
2017-08-14T15:14:05.097Z,1.90
2017-08-14T15:16:31.395Z,1.80
2017-08-14T15:18:57.669Z,2.20
2017-08-14T15:21:24.329Z,2.13
2017-08-14T15:23:50.638Z,1.90
2017-08-14T15:26:16.946Z,2.33
2017-08-14T15:28:43.253Z,2.80
2017-08-14T15:31:09.541Z,2.47
2017-08-14T15:33:35.827Z,2.73
2017-08-14T15:36:02.180Z,2.40
2017-08-14T15:38:28.767Z,2.20
2017-08-14T15:40:55.024Z,2.43
2017-08-14T15:43:21.296Z,2.27
2017-08-14T15:45:47.568Z,2.63
2017-08-14T15:48:13.837Z,2.50
2017-08-14T15:50:40.491Z,2.20
2017-08-14T15:53:06.757Z,2.57
2017-08-14T15:55:33.036Z,2.27
2017-08-14T15:57:59.323Z,2.20
2017-08-14T16:00:25.640Z,2.30
2017-08-14T16:02:51.904Z,2.27
2017-08-14T16:05:18.190Z,2.10
2017-08-14T16:07:44.474Z,2.20
2017-08-14T16:10:11.147Z,2.27
2017-08-14T16:12:37.778Z,2.43
2017-08-14T16:15:04.074Z,2.50
2017-08-14T16:17:30.344Z,1.80
2017-08-14T16:19:56.600Z,2.23
2017-08-14T16:22:22.925Z,2.33
2017-08-14T16:24:49.206Z,2.17
2017-08-14T16:27:15.809Z,2.20
2017-08-14T16:29:42.105Z,2.40
2017-08-14T16:32:08.398Z,2.40
2017-08-14T16:34:35.031Z,2.90
2017-08-14T16:37:01.681Z,2.27
2017-08-14T16:39:28.007Z,2.33
2017-08-14T16:41:54.304Z,2.20
2017-08-14T16:44:20.576Z,2.37
2017-08-14T16:46:46.864Z,2.63
2017-08-14T16:49:13.141Z,2.60
2017-08-14T16:51:39.431Z,2.57
2017-08-14T16:54:05.972Z,2.50
2017-08-14T16:56:32.247Z,2.40
2017-08-14T16:58:58.596Z,2.40
2017-08-14T17:01:24.940Z,2.40
2017-08-14T17:03:52.246Z,2.60
2017-08-14T17:06:18.570Z,3.17
2017-08-14T17:08:44.845Z,2.90
2017-08-14T17:11:11.986Z,2.37
2017-08-14T17:13:38.278Z,2.47
2017-08-14T17:16:04.601Z,2.40
2017-08-14T17:18:30.883Z,2.33
2017-08-14T17:20:57.559Z,2.00
2017-08-14T17:23:23.825Z,2.60
2017-08-14T17:25:50.164Z,2.80
2017-08-14T17:28:16.448Z,2.90
2017-08-14T17:30:42.706Z,2.53
2017-08-14T17:33:09.020Z,2.50
2017-08-14T17:35:35.282Z,2.47
2017-08-14T17:38:01.582Z,2.90
2017-08-14T17:40:27.884Z,3.00
2017-08-14T17:42:54.435Z,2.90
2017-08-14T17:45:20.707Z,2.47
2017-08-14T17:47:46.989Z,2.90
2017-08-14T17:50:13.625Z,2.67
2017-08-14T17:52:40.277Z,2.70
2017-08-14T17:55:06.609Z,2.90
2017-08-14T17:57:32.876Z,3.00
2017-08-14T17:59:59.630Z,3.20
2017-08-14T18:02:26.534Z,2.63
2017-08-14T18:04:52.819Z,2.63
2017-08-14T18:07:19.130Z,2.53
2017-08-14T18:09:45.433Z,3.10
2017-08-14T18:12:11.726Z,2.80
2017-08-14T18:14:38.636Z,2.93
2017-08-14T18:17:04.946Z,2.90
2017-08-14T18:19:31.277Z,3.40
2017-08-14T18:21:57.571Z,3.07
2017-08-14T18:24:23.825Z,2.90
2017-08-14T18:26:50.135Z,3.40
2017-08-14T18:29:17.423Z,3.47
2017-08-14T18:31:43.717Z,3.17
2017-08-14T18:34:10.047Z,2.80
2017-08-14T18:36:36.355Z,2.80
2017-08-14T18:39:02.671Z,2.53
2017-08-14T18:41:29.432Z,3.00
2017-08-14T18:43:55.726Z,3.27
2017-08-14T18:46:22.021Z,2.80
2017-08-14T18:48:48.352Z,2.90
2017-08-14T18:51:14.620Z,2.40
2017-08-14T18:53:40.932Z,3.13
2017-08-14T18:56:07.245Z,3.30
2017-08-14T18:58:34.171Z,3.63
2017-08-14T19:01:00.465Z,3.83
2017-08-14T19:03:27.621Z,3.40
2017-08-14T19:05:53.920Z,3.43
2017-08-14T19:08:22.946Z,3.53
2017-08-14T19:10:47.355Z,3.80
2017-08-14T19:13:13.618Z,2.77
2017-08-14T19:15:39.933Z,3.40
2017-08-14T19:18:06.255Z,3.50
2017-08-14T19:20:33.915Z,3.77
2017-08-14T19:23:02.194Z,3.80
2017-08-14T19:25:28.534Z,3.80
2017-08-14T19:27:54.843Z,3.50
2017-08-14T19:30:21.693Z,3.60
2017-08-14T19:32:47.995Z,4.13
2017-08-14T19:35:14.337Z,4.10
2017-08-14T19:37:40.991Z,4.70
2017-08-14T19:40:07.324Z,4.13
2017-08-14T19:42:33.622Z,4.07
2017-08-14T19:44:59.933Z,4.43
2017-08-14T19:47:26.277Z,4.13
2017-08-14T19:49:52.592Z,4.47
2017-08-14T19:52:18.893Z,4.87
2017-08-14T19:54:46.112Z,4.90
2017-08-14T19:57:12.466Z,4.50
2017-08-14T19:59:38.776Z,4.57
2017-08-14T20:02:05.420Z,5.70
2017-08-14T20:04:31.696Z,6.00
2017-08-14T20:06:58.003Z,5.73
2017-08-14T20:09:24.300Z,6.50
2017-08-14T20:11:50.590Z,5.80
2017-08-14T20:14:16.874Z,5.93
2017-08-14T20:16:43.174Z,5.70
2017-08-14T20:19:09.807Z,5.07
2017-08-14T20:21:36.097Z,5.40
2017-08-14T20:24:02.422Z,5.77
2017-08-14T20:26:28.771Z,6.40
2017-08-14T20:28:55.074Z,6.00
2017-08-14T20:31:21.412Z,5.50
2017-08-14T20:33:47.946Z,5.83
2017-08-14T20:36:14.308Z,5.47
2017-08-14T20:38:40.585Z,5.93
2017-08-14T20:41:06.894Z,5.57
2017-08-14T20:43:33.238Z,6.43
2017-08-14T20:45:59.529Z,5.10
2017-08-14T20:48:25.821Z,6.13
2017-08-14T20:50:52.090Z,6.30
2017-08-14T20:53:18.421Z,5.43
2017-08-14T20:55:44.714Z,5.50
2017-08-14T20:58:11.042Z,6.00
2017-08-14T21:00:37.358Z,5.57
2017-08-14T21:03:03.653Z,6.30
2017-08-14T21:05:29.954Z,5.90
2017-08-14T21:07:56.253Z,5.60
2017-08-14T21:10:22.567Z,6.23
2017-08-14T21:12:48.892Z,5.43
2017-08-14T21:15:15.197Z,6.80
2017-08-14T21:17:41.889Z,5.43
2017-08-14T21:20:08.171Z,6.13
2017-08-14T21:22:34.464Z,5.83
2017-08-14T21:25:00.740Z,6.63
2017-08-14T21:27:27.417Z,7.90
2017-08-14T21:29:53.683Z,8.20
2017-08-14T21:32:20.006Z,8.00
2017-08-14T21:34:46.274Z,7.50
2017-08-14T21:37:13.186Z,8.10
2017-08-14T21:39:41.014Z,6.83
2017-08-14T21:42:10.058Z,8.60
2017-08-14T21:44:42.293Z,8.13
2017-08-14T21:47:09.593Z,7.70
2017-08-14T21:49:37.164Z,7.63
2017-08-14T21:52:03.436Z,6.97
2017-08-14T21:54:30.447Z,6.93
2017-08-14T21:56:56.710Z,7.53
2017-08-14T21:59:23.361Z,6.80
2017-08-14T22:01:49.638Z,7.23
2017-08-14T22:04:15.897Z,6.90
2017-08-14T22:06:42.218Z,6.30
2017-08-14T22:09:08.521Z,6.07
2017-08-14T22:11:35.547Z,5.77
2017-08-14T22:14:01.867Z,6.80
2017-08-14T22:16:28.189Z,6.30
2017-08-14T22:18:54.465Z,6.20
2017-08-14T22:21:20.769Z,6.13
2017-08-14T22:23:47.422Z,6.60
2017-08-14T22:26:14.048Z,6.27
2017-08-14T22:28:40.681Z,7.10
2017-08-14T22:31:07.323Z,6.87
2017-08-14T22:33:33.994Z,6.43
2017-08-14T22:36:00.293Z,7.90
2017-08-14T22:38:27.496Z,7.17
2017-08-14T22:40:53.774Z,6.73
2017-08-14T22:43:20.376Z,8.27
2017-08-14T22:45:47.528Z,8.37
2017-08-14T22:48:13.806Z,7.03
2017-08-14T22:50:40.121Z,7.80
2017-08-14T22:53:08.965Z,7.70
2017-08-14T22:55:35.267Z,7.07
2017-08-14T22:58:01.550Z,7.10
2017-08-14T23:00:29.159Z,7.40
2017-08-14T23:02:57.632Z,7.10
2017-08-14T23:05:23.928Z,6.83
2017-08-14T23:07:50.221Z,6.97
2017-08-14T23:10:17.178Z,6.90
2017-08-14T23:12:43.477Z,7.00
2017-08-14T23:15:10.438Z,7.20
2017-08-14T23:17:36.752Z,7.20
2017-08-14T23:20:03.836Z,7.17
2017-08-14T23:22:30.133Z,7.20
2017-08-14T23:24:57.408Z,7.13
2017-08-14T23:27:23.718Z,6.03
2017-08-14T23:29:50.783Z,6.50
2017-08-14T23:32:17.119Z,5.80
2017-08-14T23:34:44.259Z,6.20
2017-08-14T23:37:21.501Z,5.80
2017-08-14T23:39:49.184Z,5.30
2017-08-14T23:42:19.478Z,5.77
2017-08-14T23:44:48.501Z,5.13
2017-08-14T23:47:21.540Z,6.20
2017-08-14T23:49:47.830Z,5.50
2017-08-14T23:52:15.659Z,5.87
2017-08-14T23:54:42.311Z,5.87
2017-08-14T23:57:11.211Z,6.30
2017-08-14T23:59:38.464Z,5.60
